createdAt,value
2023-05-20T00:01:22.372Z,2.00
2023-05-20T00:04:09.565Z,2.37
2023-05-20T00:06:56.748Z,2.37
2023-05-20T00:09:43.704Z,2.23
2023-05-20T00:12:30.681Z,2.50
2023-05-20T00:15:17.801Z,1.80
2023-05-20T00:18:05.186Z,2.30
2023-05-20T00:20:54.082Z,1.90
2023-05-20T00:23:41.103Z,2.47
2023-05-20T00:26:29.210Z,2.30
2023-05-20T00:29:17.731Z,2.20
2023-05-20T00:32:05.013Z,2.60
2023-05-20T00:34:59.162Z,2.30
2023-05-20T00:37:46.151Z,2.70
2023-05-20T00:40:33.140Z,2.37
2023-05-20T00:43:20.723Z,2.50
2023-05-20T00:46:07.960Z,2.80
2023-05-20T00:48:55.368Z,2.53
2023-05-20T00:51:42.468Z,2.40
2023-05-20T00:54:29.760Z,2.53
2023-05-20T00:57:17.274Z,2.40
2023-05-20T01:00:08.000Z,2.23
2023-05-20T01:02:56.707Z,2.27
2023-05-20T01:05:43.802Z,2.43
2023-05-20T01:08:31.185Z,2.20
2023-05-20T01:11:44.430Z,2.63
2023-05-20T01:14:37.686Z,2.40
2023-05-20T01:17:27.327Z,2.27
2023-05-20T01:20:15.473Z,2.50
2023-05-20T01:23:03.330Z,2.43
2023-05-20T01:25:50.293Z,2.80
2023-05-20T01:28:39.326Z,2.37
2023-05-20T01:31:31.519Z,2.60
2023-05-20T01:34:19.000Z,2.50
2023-05-20T01:37:06.900Z,3.00
2023-05-20T01:39:54.804Z,2.73
2023-05-20T01:42:43.556Z,2.53
2023-05-20T01:45:31.291Z,3.00
2023-05-20T01:48:19.778Z,2.73
2023-05-20T01:51:06.772Z,2.40
2023-05-20T01:53:53.769Z,2.60
2023-05-20T01:56:40.737Z,2.47
2023-05-20T01:59:27.753Z,2.50
2023-05-20T02:02:15.375Z,2.53
2023-05-20T02:05:02.965Z,2.27
2023-05-20T02:07:49.973Z,2.87
2023-05-20T02:10:37.033Z,3.07
2023-05-20T02:13:24.011Z,2.70
2023-05-20T02:16:11.161Z,3.30
2023-05-20T02:18:58.660Z,3.00
2023-05-20T02:21:47.829Z,3.20
2023-05-20T02:24:34.805Z,3.03
2023-05-20T02:27:21.907Z,3.43
2023-05-20T02:30:09.291Z,2.73
2023-05-20T02:32:57.801Z,2.80
2023-05-20T02:35:45.135Z,3.03
2023-05-20T02:38:32.428Z,2.97
2023-05-20T02:41:19.391Z,3.03
2023-05-20T02:44:07.471Z,2.80
2023-05-20T02:46:54.513Z,2.87
2023-05-20T02:49:41.687Z,3.23
2023-05-20T02:52:28.717Z,2.73
2023-05-20T02:55:15.879Z,3.23
2023-05-20T02:58:03.902Z,2.77
2023-05-20T03:00:53.671Z,3.07
2023-05-20T03:03:40.873Z,2.60
2023-05-20T03:06:29.972Z,2.90
2023-05-20T03:09:16.967Z,2.80
2023-05-20T03:12:04.084Z,2.90
2023-05-20T03:14:55.118Z,2.60
2023-05-20T03:17:44.344Z,3.10
2023-05-20T03:20:33.308Z,2.83
2023-05-20T03:23:21.327Z,2.83
2023-05-20T03:26:08.407Z,2.87
2023-05-20T03:28:55.622Z,2.90
2023-05-20T03:31:42.677Z,2.77
2023-05-20T03:34:30.253Z,3.30
2023-05-20T03:37:17.280Z,2.90
2023-05-20T03:40:06.206Z,2.77
2023-05-20T03:42:54.775Z,2.77
2023-05-20T03:45:42.407Z,2.97
2023-05-20T03:48:29.490Z,3.10
2023-05-20T03:51:16.492Z,3.30
2023-05-20T03:54:04.019Z,2.87
2023-05-20T03:56:51.983Z,3.37
2023-05-20T03:59:39.078Z,3.47
2023-05-20T04:02:26.225Z,3.20
2023-05-20T04:05:13.910Z,3.27
2023-05-20T04:08:01.663Z,3.53
2023-05-20T04:10:49.364Z,3.17
2023-05-20T04:13:36.391Z,3.47
2023-05-20T04:16:23.458Z,2.97
2023-05-20T04:19:10.959Z,3.93
2023-05-20T04:21:58.012Z,3.53
2023-05-20T04:24:46.100Z,3.67
2023-05-20T04:27:37.695Z,3.60
2023-05-20T04:30:25.137Z,3.50
2023-05-20T04:33:12.223Z,3.80
2023-05-20T04:35:59.676Z,3.57
2023-05-20T04:38:48.211Z,3.40
2023-05-20T04:41:36.416Z,3.23
2023-05-20T04:44:24.709Z,3.13
2023-05-20T04:47:12.069Z,3.73
2023-05-20T04:49:59.268Z,3.50
2023-05-20T04:52:46.419Z,3.50
2023-05-20T04:55:33.774Z,3.70
2023-05-20T04:58:24.350Z,3.30
2023-05-20T05:01:11.374Z,3.47
2023-05-20T05:03:58.546Z,3.60
2023-05-20T05:06:48.230Z,3.20
2023-05-20T05:09:35.533Z,3.53
2023-05-20T05:12:22.716Z,3.23
2023-05-20T05:15:11.002Z,3.60
2023-05-20T05:17:58.195Z,4.17
2023-05-20T05:20:45.254Z,3.37
2023-05-20T05:23:33.252Z,3.17
2023-05-20T05:26:20.988Z,3.23
2023-05-20T05:29:08.801Z,3.17
2023-05-20T05:31:58.096Z,3.50
2023-05-20T05:34:45.426Z,3.50
2023-05-20T05:37:32.442Z,3.60
2023-05-20T05:40:19.545Z,3.37
2023-05-20T05:43:07.779Z,3.50
2023-05-20T05:45:55.942Z,3.70
2023-05-20T05:48:42.947Z,3.10
2023-05-20T05:51:30.842Z,3.23
2023-05-20T05:54:20.441Z,3.23
2023-05-20T05:57:09.841Z,3.97
2023-05-20T05:59:58.059Z,3.10
2023-05-20T06:02:46.206Z,3.30
2023-05-20T06:05:40.537Z,3.43
2023-05-20T06:08:27.599Z,3.50
2023-05-20T06:11:15.025Z,3.70
2023-05-20T06:14:03.499Z,3.60
2023-05-20T06:16:50.570Z,3.50
2023-05-20T06:19:38.188Z,3.90
2023-05-20T06:22:25.636Z,3.90
2023-05-20T06:25:14.566Z,4.00
2023-05-20T06:28:02.227Z,3.50
2023-05-20T06:30:49.416Z,4.13
2023-05-20T06:33:36.975Z,4.17
2023-05-20T06:36:32.369Z,3.83
2023-05-20T06:39:20.630Z,3.53
2023-05-20T06:42:07.710Z,3.57
2023-05-20T06:44:56.713Z,3.67
2023-05-20T06:48:01.226Z,3.73
2023-05-20T06:50:48.821Z,4.00
2023-05-20T06:53:36.275Z,4.00
2023-05-20T06:56:23.648Z,3.53
2023-05-20T06:59:10.634Z,3.70
2023-05-20T07:01:58.823Z,3.70
2023-05-20T07:04:45.888Z,3.80
2023-05-20T07:07:33.734Z,3.80
2023-05-20T07:10:20.851Z,3.60
2023-05-20T07:13:08.998Z,4.03
2023-05-20T07:15:56.067Z,3.73
2023-05-20T07:18:43.287Z,3.60
2023-05-20T07:21:30.871Z,3.87
2023-05-20T07:24:23.445Z,3.60
2023-05-20T07:27:10.507Z,3.90
2023-05-20T07:29:57.944Z,4.40
2023-05-20T07:32:45.051Z,3.97
2023-05-20T07:35:32.982Z,3.80
2023-05-20T07:38:20.431Z,3.60
2023-05-20T07:41:11.759Z,4.00
2023-05-20T07:43:58.720Z,3.80
2023-05-20T07:46:45.934Z,4.00
2023-05-20T07:49:32.992Z,4.07
2023-05-20T07:52:20.091Z,3.80
2023-05-20T07:55:07.411Z,4.00
2023-05-20T07:57:54.510Z,4.07
2023-05-20T08:00:43.808Z,3.87
2023-05-20T08:03:31.720Z,3.93
2023-05-20T08:06:29.435Z,3.80
2023-05-20T08:09:17.597Z,4.40
2023-05-20T08:12:08.708Z,3.77
2023-05-20T08:14:56.046Z,4.30
2023-05-20T08:17:43.404Z,4.10
2023-05-20T08:20:30.953Z,3.83
2023-05-20T08:23:17.931Z,3.90
2023-05-20T08:26:05.008Z,3.93
2023-05-20T08:28:53.868Z,3.80
2023-05-20T08:31:41.398Z,4.00
2023-05-20T08:34:28.687Z,4.20
2023-05-20T08:37:16.671Z,3.70
2023-05-20T08:40:05.191Z,4.13
2023-05-20T08:42:52.935Z,3.80
2023-05-20T08:45:40.122Z,3.90
2023-05-20T08:48:33.800Z,3.57
2023-05-20T08:51:23.756Z,3.47
2023-05-20T08:54:12.012Z,3.60
2023-05-20T08:57:00.535Z,3.90
2023-05-20T08:59:47.547Z,4.00
2023-05-20T09:02:38.131Z,3.80
2023-05-20T09:05:25.156Z,3.73
2023-05-20T09:08:12.502Z,3.93
2023-05-20T09:11:00.397Z,3.93
2023-05-20T09:13:47.368Z,3.53
2023-05-20T09:16:34.984Z,3.33
2023-05-20T09:19:25.571Z,3.70
2023-05-20T09:22:12.586Z,3.30
2023-05-20T09:24:59.650Z,3.50
2023-05-20T09:27:46.683Z,3.57
2023-05-20T09:30:33.896Z,3.57
2023-05-20T09:33:21.921Z,3.47
2023-05-20T09:36:09.957Z,3.50
2023-05-20T09:39:03.249Z,3.50
2023-05-20T09:41:57.980Z,3.90
2023-05-20T09:44:45.470Z,3.43
2023-05-20T09:47:32.533Z,3.67
2023-05-20T09:50:21.623Z,3.60
2023-05-20T09:53:09.174Z,3.40
2023-05-20T09:55:56.547Z,3.30
2023-05-20T09:58:45.654Z,2.90
2023-05-20T10:01:32.716Z,3.20
2023-05-20T10:04:21.784Z,3.37
2023-05-20T10:07:47.732Z,3.37
2023-05-20T10:11:04.665Z,3.60
2023-05-20T10:14:27.615Z,3.90
2023-05-20T10:17:25.922Z,3.57
2023-05-20T10:20:13.349Z,3.67
2023-05-20T10:23:00.633Z,3.63
2023-05-20T10:25:53.238Z,3.40
2023-05-20T10:28:41.642Z,3.40
2023-05-20T10:31:28.691Z,3.70
2023-05-20T10:34:18.027Z,3.20
2023-05-20T10:37:05.034Z,3.60
2023-05-20T10:39:52.149Z,3.87
2023-05-20T10:42:39.710Z,3.50
2023-05-20T10:45:29.310Z,3.30
2023-05-20T10:48:30.779Z,3.40
2023-05-20T10:51:18.066Z,3.63
2023-05-20T10:54:05.178Z,3.43
2023-05-20T10:56:53.723Z,4.07
2023-05-20T10:59:41.698Z,4.00
2023-05-20T11:02:29.124Z,3.63
2023-05-20T11:05:17.373Z,3.87
2023-05-20T11:08:10.675Z,4.00
2023-05-20T11:11:07.862Z,4.00
2023-05-20T11:13:57.345Z,3.80
2023-05-20T11:16:44.696Z,3.50
2023-05-20T11:19:31.819Z,3.73
2023-05-20T11:22:19.007Z,4.00
2023-05-20T11:25:07.414Z,4.37
2023-05-20T11:27:54.478Z,4.13
2023-05-20T11:30:43.199Z,4.10
2023-05-20T11:33:30.787Z,4.07
2023-05-20T11:36:27.564Z,4.27
2023-05-20T11:39:15.960Z,4.13
2023-05-20T11:42:03.326Z,4.13
2023-05-20T11:44:50.328Z,3.70
2023-05-20T11:47:37.322Z,3.70
2023-05-20T11:50:24.315Z,3.87
2023-05-20T11:53:16.072Z,4.17
2023-05-20T11:56:03.135Z,4.10
2023-05-20T11:58:50.172Z,4.10
2023-05-20T12:01:45.774Z,4.40
2023-05-20T12:04:32.886Z,4.67
2023-05-20T12:07:20.006Z,4.50
2023-05-20T12:10:07.707Z,4.07
2023-05-20T12:12:54.709Z,4.80
2023-05-20T12:15:41.742Z,4.47
2023-05-20T12:18:28.831Z,4.73
2023-05-20T12:21:15.907Z,4.50
2023-05-20T12:24:05.293Z,4.70
2023-05-20T12:26:52.274Z,4.40
2023-05-20T12:29:39.330Z,4.57
2023-05-20T12:32:26.313Z,4.60
2023-05-20T12:35:14.151Z,4.43
2023-05-20T12:38:01.696Z,4.43
2023-05-20T12:40:48.724Z,4.70
2023-05-20T12:43:37.403Z,4.40
2023-05-20T12:46:24.608Z,5.23
2023-05-20T12:49:11.656Z,5.23
2023-05-20T12:51:59.933Z,5.90
2023-05-20T12:54:48.554Z,4.83
2023-05-20T12:57:35.613Z,5.17
2023-05-20T13:00:23.706Z,4.30
2023-05-20T13:03:11.215Z,5.07
2023-05-20T13:05:59.403Z,4.60
2023-05-20T13:08:46.548Z,4.70
2023-05-20T13:11:33.899Z,4.30
2023-05-20T13:14:21.622Z,4.43
2023-05-20T13:17:08.756Z,4.53
2023-05-20T13:19:55.895Z,4.70
2023-05-20T13:22:43.036Z,4.73
2023-05-20T13:25:31.779Z,4.80
2023-05-20T13:28:20.782Z,4.60
2023-05-20T13:31:07.851Z,5.43
2023-05-20T13:33:55.264Z,4.77
2023-05-20T13:36:42.309Z,4.60
2023-05-20T13:39:29.658Z,4.57
2023-05-20T13:42:16.737Z,4.80
2023-05-20T13:45:04.339Z,4.93
2023-05-20T13:47:51.551Z,4.50
2023-05-20T13:50:38.883Z,4.90
2023-05-20T13:53:26.115Z,4.40
2023-05-20T13:56:13.235Z,5.10
2023-05-20T13:59:00.185Z,5.43
2023-05-20T14:01:47.375Z,4.50
2023-05-20T14:04:39.431Z,4.57
2023-05-20T14:07:27.059Z,4.63
2023-05-20T14:10:14.144Z,4.27
2023-05-20T14:13:02.186Z,4.67
2023-05-20T14:15:54.731Z,4.30
2023-05-20T14:18:41.843Z,4.67
2023-05-20T14:21:28.831Z,4.80
2023-05-20T14:24:16.026Z,4.77
2023-05-20T14:27:03.272Z,4.40
2023-05-20T14:29:50.384Z,4.57
2023-05-20T14:32:37.467Z,4.47
2023-05-20T14:35:24.508Z,4.67
2023-05-20T14:38:11.510Z,4.93
2023-05-20T14:40:58.532Z,4.93
2023-05-20T14:43:45.621Z,4.97
2023-05-20T14:46:32.725Z,4.90
2023-05-20T14:49:19.783Z,4.70
2023-05-20T14:52:07.656Z,4.07
2023-05-20T14:54:56.615Z,5.10
2023-05-20T14:57:43.717Z,4.27
2023-05-20T15:00:32.539Z,4.83
2023-05-20T15:03:20.440Z,4.50
2023-05-20T15:06:07.644Z,4.97
2023-05-20T15:08:54.637Z,5.10
2023-05-20T15:11:41.601Z,4.50
2023-05-20T15:14:28.831Z,4.83
2023-05-20T15:17:16.334Z,4.80
2023-05-20T15:20:03.969Z,4.67
2023-05-20T15:22:51.148Z,5.47
2023-05-20T15:25:38.174Z,5.20
2023-05-20T15:28:25.163Z,5.20
2023-05-20T15:31:12.179Z,4.80
2023-05-20T15:33:59.289Z,4.73
2023-05-20T15:36:46.634Z,4.70
2023-05-20T15:39:37.014Z,4.73
2023-05-20T15:42:24.695Z,5.40
2023-05-20T15:45:11.934Z,4.80
2023-05-20T15:47:59.283Z,5.07
2023-05-20T15:50:46.319Z,4.53
2023-05-20T15:53:33.412Z,4.40
2023-05-20T15:56:21.698Z,4.67
2023-05-20T15:59:08.725Z,4.83
2023-05-20T16:01:55.780Z,5.07
2023-05-20T16:04:42.854Z,4.83
2023-05-20T16:07:30.500Z,4.77
2023-05-20T16:10:17.721Z,5.03
2023-05-20T16:13:04.714Z,4.77
2023-05-20T16:15:51.944Z,4.30
2023-05-20T16:18:39.182Z,4.97
2023-05-20T16:21:26.377Z,5.00
2023-05-20T16:24:13.686Z,4.53
2023-05-20T16:27:03.558Z,5.30
2023-05-20T16:29:50.709Z,5.40
2023-05-20T16:32:37.874Z,5.23
2023-05-20T16:35:24.894Z,4.60
2023-05-20T16:38:12.133Z,4.63
2023-05-20T16:40:59.079Z,4.63
2023-05-20T16:43:46.145Z,4.90
2023-05-20T16:46:33.179Z,4.80
2023-05-20T16:49:23.143Z,5.30
2023-05-20T16:52:10.232Z,4.77
2023-05-20T16:55:02.139Z,4.37
2023-05-20T16:57:50.518Z,4.30
2023-05-20T17:00:37.504Z,4.37
2023-05-20T17:03:24.465Z,4.57
2023-05-20T17:06:11.532Z,4.73
2023-05-20T17:08:59.557Z,4.67
2023-05-20T17:11:46.610Z,4.60
2023-05-20T17:14:33.587Z,4.63
2023-05-20T17:17:21.223Z,4.67
2023-05-20T17:20:09.438Z,5.00
2023-05-20T17:22:56.450Z,4.40
2023-05-20T17:25:43.518Z,4.83
2023-05-20T17:28:30.656Z,5.13
2023-05-20T17:31:17.651Z,5.07
2023-05-20T17:34:04.701Z,4.60
2023-05-20T17:36:51.744Z,5.17
2023-05-20T17:39:38.742Z,5.07
2023-05-20T17:42:25.968Z,4.63
2023-05-20T17:45:12.941Z,4.93
2023-05-20T17:47:59.952Z,5.37
2023-05-20T17:50:47.026Z,5.47
2023-05-20T17:53:33.956Z,5.40
2023-05-20T17:56:21.302Z,4.60
2023-05-20T17:59:08.303Z,5.10
2023-05-20T18:01:55.698Z,4.90
2023-05-20T18:04:42.703Z,5.43
2023-05-20T18:07:30.464Z,5.40
2023-05-20T18:10:17.601Z,5.20
2023-05-20T18:13:04.604Z,5.43
2023-05-20T18:15:52.476Z,5.73
2023-05-20T18:18:39.481Z,5.13
2023-05-20T18:21:26.622Z,5.27
2023-05-20T18:24:16.423Z,5.20
2023-05-20T18:27:03.465Z,5.23
2023-05-20T18:29:50.485Z,5.93
2023-05-20T18:32:38.778Z,5.33
2023-05-20T18:35:25.942Z,5.50
2023-05-20T18:38:12.958Z,5.50
2023-05-20T18:40:59.968Z,5.03
2023-05-20T18:43:47.018Z,5.80
2023-05-20T18:46:34.006Z,5.17
2023-05-20T18:49:21.184Z,5.00
2023-05-20T18:52:08.352Z,5.30
2023-05-20T18:54:55.564Z,5.73
2023-05-20T18:57:42.578Z,5.57
2023-05-20T19:00:29.528Z,5.30
2023-05-20T19:03:17.015Z,5.43
2023-05-20T19:06:04.223Z,5.73
2023-05-20T19:08:51.387Z,5.47
2023-05-20T19:11:38.395Z,5.53
2023-05-20T19:14:25.935Z,5.50
2023-05-20T19:17:13.762Z,5.63
2023-05-20T19:20:00.808Z,5.70
2023-05-20T19:22:47.831Z,6.03
2023-05-20T19:25:35.010Z,5.47
2023-05-20T19:28:22.169Z,5.83
2023-05-20T19:31:09.194Z,6.20
2023-05-20T19:33:56.159Z,5.83
2023-05-20T19:36:43.229Z,5.70
2023-05-20T19:39:30.631Z,6.03
2023-05-20T19:42:17.676Z,5.90
2023-05-20T19:45:05.062Z,6.03
2023-05-20T19:47:52.325Z,5.80
2023-05-20T19:50:39.359Z,5.63
2023-05-20T19:53:26.334Z,5.80
2023-05-20T19:56:13.388Z,6.30
2023-05-20T19:59:01.732Z,6.27
2023-05-20T20:01:48.963Z,6.03
2023-05-20T20:04:36.242Z,5.60
2023-05-20T20:07:23.758Z,5.43
2023-05-20T20:10:11.023Z,6.33
2023-05-20T20:12:58.031Z,5.67
2023-05-20T20:15:45.076Z,6.37
2023-05-20T20:18:32.704Z,5.90
2023-05-20T20:21:20.125Z,6.53
2023-05-20T20:24:07.122Z,6.10
2023-05-20T20:26:54.310Z,5.67
2023-05-20T20:29:42.724Z,5.43
2023-05-20T20:32:29.762Z,5.63
2023-05-20T20:35:17.098Z,5.70
2023-05-20T20:38:10.465Z,5.83
2023-05-20T20:40:59.270Z,6.57
2023-05-20T20:43:46.254Z,6.47
2023-05-20T20:46:33.229Z,6.20
2023-05-20T20:49:21.190Z,5.87
2023-05-20T20:52:08.224Z,5.67
2023-05-20T20:54:57.004Z,5.83
2023-05-20T20:57:44.729Z,6.60
2023-05-20T21:00:31.757Z,5.83
2023-05-20T21:03:19.030Z,5.53
2023-05-20T21:06:07.287Z,5.90
2023-05-20T21:08:57.975Z,6.00
2023-05-20T21:11:45.845Z,6.10
2023-05-20T21:14:32.909Z,5.70
2023-05-20T21:17:19.916Z,5.73
2023-05-20T21:20:07.635Z,6.20
2023-05-20T21:22:54.605Z,5.57
2023-05-20T21:25:41.919Z,6.03
2023-05-20T21:28:28.872Z,5.77
2023-05-20T21:31:15.915Z,5.93
2023-05-20T21:34:02.972Z,5.60
2023-05-20T21:36:49.924Z,6.20
2023-05-20T21:39:38.760Z,5.40
2023-05-20T21:42:25.941Z,5.93
2023-05-20T21:45:13.596Z,5.50
2023-05-20T21:48:00.755Z,6.27
2023-05-20T21:50:47.854Z,5.80
2023-05-20T21:53:34.851Z,6.50
2023-05-20T21:56:21.815Z,6.73
2023-05-20T21:59:08.815Z,6.77
2023-05-20T22:01:57.911Z,6.30
2023-05-20T22:04:45.015Z,6.53
2023-05-20T22:07:33.047Z,6.03
2023-05-20T22:10:20.941Z,6.00
2023-05-20T22:13:10.883Z,5.97
2023-05-20T22:15:58.068Z,6.00
2023-05-20T22:18:48.370Z,6.13
2023-05-20T22:21:42.716Z,6.33
2023-05-20T22:24:36.380Z,6.07
2023-05-20T22:27:24.090Z,5.80
2023-05-20T22:30:11.785Z,6.27
2023-05-20T22:32:59.207Z,6.40
2023-05-20T22:35:46.232Z,6.07
2023-05-20T22:38:35.692Z,6.10
2023-05-20T22:41:22.834Z,6.07
2023-05-20T22:44:09.795Z,5.80
2023-05-20T22:46:56.810Z,6.30
2023-05-20T22:49:44.580Z,6.30
2023-05-20T22:52:32.559Z,6.10
2023-05-20T22:55:19.527Z,6.17
2023-05-20T22:58:07.931Z,5.90
2023-05-20T23:00:55.118Z,6.40
2023-05-20T23:03:42.289Z,5.57
2023-05-20T23:06:29.267Z,6.07
2023-05-20T23:09:16.287Z,6.20
2023-05-20T23:12:03.460Z,5.63
2023-05-20T23:14:51.374Z,5.77
2023-05-20T23:17:39.683Z,6.10
2023-05-20T23:20:29.185Z,5.80
2023-05-20T23:23:16.531Z,5.50
2023-05-20T23:26:05.216Z,6.27
2023-05-20T23:28:52.208Z,5.03
2023-05-20T23:31:39.876Z,5.70
2023-05-20T23:34:27.320Z,5.60
2023-05-20T23:37:14.283Z,6.13
2023-05-20T23:40:01.271Z,5.33
2023-05-20T23:42:48.229Z,5.33
2023-05-20T23:45:35.367Z,5.43
2023-05-20T23:48:23.372Z,5.80
2023-05-20T23:51:13.466Z,5.50
2023-05-20T23:54:00.484Z,6.07
2023-05-20T23:56:47.514Z,5.63
2023-05-20T23:59:34.494Z,5.97
